Time;durP1;ratioP1;P1;durP2;ratioP2;P2;SDS_P1;SDS_P2;PMS_P1;PMS_P2;Temp;Humidity;BMP_temperature;BMP_pressure;BME280_temperature;BME280_humidity;BME280_pressure;Samples;Min_cycle;Max_cycle;Signal;HPM_P1;HPM_P2
2022/01/02 00:01:41;;;;;;;;;;;3.10;99.90;;;;;;5094780;28;19919;-74
2022/01/02 00:04:17;;;;;;;;;;;3.20;99.90;;;;;;5095233;28;19920;-73
2022/01/02 00:06:49;;;;;;;;;;;3.30;99.90;;;;;;5093539;28;19970;-74
2022/01/02 00:09:24;;;;;;;;;;;3.30;99.90;;;;;;5094517;28;20026;-74
2022/01/02 00:11:53;;;;;;;;;;;3.20;99.90;;;;;;5099980;28;19973;-74
2022/01/02 00:14:22;;;;;;;;;;;3.20;99.90;;;;;;5114149;27;19926;-74
2022/01/02 00:16:50;;;;;;;;;;;3.20;99.90;;;;;;5114329;27;20027;-74
2022/01/02 00:19:21;;;;;;;;;;;3.30;99.90;;;;;;5102347;28;20282;-73
2022/01/02 00:21:48;;;;;;;;;;;3.40;99.90;;;;;;5107444;27;20439;-74
2022/01/02 00:24:20;;;;;;;;;;;3.40;99.90;;;;;;5115279;27;19919;-73
2022/01/02 00:26:49;;;;;;;;;;;3.30;99.90;;;;;;5102797;27;19998;-73
2022/01/02 00:29:15;;;;;;;;;;;3.20;99.90;;;;;;5121919;27;19924;-74
2022/01/02 00:31:42;;;;;;;;;;;3.10;99.90;;;;;;5111209;28;20058;-74
2022/01/02 00:34:09;;;;;;;;;;;3.00;99.90;;;;;;5100512;27;20275;-73
2022/01/02 00:36:36;;;;;;;;;;;3.00;99.90;;;;;;5105423;28;19972;-73
2022/01/02 00:39:06;;;;;;;;;;;3.00;99.90;;;;;;5105629;28;19927;-73
2022/01/02 00:41:43;;;;;;;;;;;3.00;99.90;;;;;;5096576;28;19962;-73
2022/01/02 00:44:21;;;;;;;;;;;3.10;99.90;;;;;;5101370;28;21985;-74
2022/01/02 00:46:52;;;;;;;;;;;3.10;99.90;;;;;;5093826;28;20006;-73
2022/01/02 00:49:24;;;;;;;;;;;3.10;99.90;;;;;;5091113;28;20408;-73
2022/01/02 00:51:55;;;;;;;;;;;3.10;99.90;;;;;;5095964;28;20503;-73
2022/01/02 00:54:27;;;;;;;;;;;3.20;99.90;;;;;;5100064;28;19964;-73
2022/01/02 00:57:03;;;;;;;;;;;3.30;99.90;;;;;;5101591;28;19946;-73
2022/01/02 00:59:34;;;;;;;;;;;3.30;99.90;;;;;;5098271;28;19924;-74
2022/01/02 01:02:04;;;;;;;;;;;3.40;99.90;;;;;;5109681;28;19984;-73
2022/01/02 01:04:32;;;;;;;;;;;3.40;99.90;;;;;;5094527;28;19970;-73
2022/01/02 01:07:01;;;;;;;;;;;3.50;99.90;;;;;;5101078;28;19979;-74
2022/01/02 01:09:31;;;;;;;;;;;3.60;99.90;;;;;;5097829;28;20438;-73
2022/01/02 01:11:59;;;;;;;;;;;3.70;99.90;;;;;;5104105;28;19932;-73
2022/01/02 01:14:27;;;;;;;;;;;3.70;99.90;;;;;;5101263;28;19924;-73
2022/01/02 01:16:54;;;;;;;;;;;3.70;99.90;;;;;;5105372;28;19970;-74
2022/01/02 01:19:22;;;;;;;;;;;3.70;99.90;;;;;;5098962;28;20361;-73
2022/01/02 01:21:49;;;;;;;;;;;3.80;99.90;;;;;;5102609;28;20015;-74
2022/01/02 01:24:16;;;;;;;;;;;3.80;99.90;;;;;;5093814;28;20022;-73
2022/01/02 01:26:46;;;;;;;;;;;3.80;99.90;;;;;;5094089;28;19925;-72
2022/01/02 01:29:12;;;;;;;;;;;3.70;99.90;;;;;;5092542;28;20041;-73
2022/01/02 01:31:39;;;;;;;;;;;3.70;99.90;;;;;;5098089;28;20091;-74
2022/01/02 01:34:06;;;;;;;;;;;3.60;99.90;;;;;;5095630;27;20273;-74
2022/01/02 01:36:32;;;;;;;;;;;3.60;99.90;;;;;;5105720;28;19924;-74
2022/01/02 01:38:59;;;;;;;;;;;3.50;99.90;;;;;;5080271;28;19931;-74
2022/01/02 01:41:28;;;;;;;;;;;3.40;99.90;;;;;;5108368;27;19940;-74
2022/01/02 01:46:54;;;;;;;;;;;3.20;99.90;;;;;;5091372;28;19968;-74
2022/01/02 01:49:29;;;;;;;;;;;3.00;99.90;;;;;;5094988;27;20396;-74
2022/01/02 01:51:56;;;;;;;;;;;2.80;99.90;;;;;;5093841;28;19928;-74
2022/01/02 01:54:23;;;;;;;;;;;2.60;99.90;;;;;;5097145;28;19978;-73
2022/01/02 01:56:51;;;;;;;;;;;2.50;99.90;;;;;;5096284;28;20334;-74
2022/01/02 01:59:19;;;;;;;;;;;2.40;99.90;;;;;;5104372;28;19935;-74
2022/01/02 02:01:47;;;;;;;;;;;2.30;99.90;;;;;;5107979;28;20382;-73
2022/01/02 02:04:16;;;;;;;;;;;2.40;99.90;;;;;;5099587;28;19975;-74
2022/01/02 02:06:43;;;;;;;;;;;2.40;99.90;;;;;;5106797;28;20011;-74
2022/01/02 02:09:10;;;;;;;;;;;2.40;99.90;;;;;;5094098;28;19923;-74
2022/01/02 02:11:38;;;;;;;;;;;2.40;99.90;;;;;;5096047;28;19934;-74
2022/01/02 02:14:06;;;;;;;;;;;2.50;99.90;;;;;;5103521;28;19930;-74
2022/01/02 02:16:34;;;;;;;;;;;2.40;99.90;;;;;;5097695;28;20445;-74
2022/01/02 02:19:01;;;;;;;;;;;2.50;99.90;;;;;;5116287;27;20000;-74
2022/01/02 02:21:28;;;;;;;;;;;2.60;99.90;;;;;;5127580;27;20018;-74
2022/01/02 02:23:55;;;;;;;;;;;2.70;99.90;;;;;;5102581;28;19924;-74
2022/01/02 02:26:22;;;;;;;;;;;2.70;99.90;;;;;;5102429;28;19975;-74
2022/01/02 02:28:49;;;;;;;;;;;2.80;99.90;;;;;;5103384;28;19923;-74
2022/01/02 02:31:17;;;;;;;;;;;2.90;99.90;;;;;;5094626;28;19935;-74
2022/01/02 02:33:44;;;;;;;;;;;2.90;99.90;;;;;;5096966;28;20402;-74
2022/01/02 02:36:11;;;;;;;;;;;2.90;99.90;;;;;;5104247;28;19966;-74
2022/01/02 02:38:40;;;;;;;;;;;2.90;99.90;;;;;;5102769;28;19950;-73
2022/01/02 02:41:06;;;;;;;;;;;2.90;99.90;;;;;;5100582;28;19928;-73
2022/01/02 02:43:45;;;;;;;;;;;2.90;99.90;;;;;;5092116;28;20578;-73
2022/01/02 02:49:15;;;;;;;;;;;3.00;99.90;;;;;;5097293;28;20023;-73
2022/01/02 02:54:18;;;;;;;;;;;3.00;99.90;;;;;;5095501;28;19985;-72
2022/01/02 02:56:59;;;;;;;;;;;3.00;99.90;;;;;;5109925;28;19927;-72
2022/01/02 02:59:27;;;;;;;;;;;3.10;99.90;;;;;;5096122;28;19924;-72
2022/01/02 03:01:54;;;;;;;;;;;3.10;99.90;;;;;;5095869;27;20534;-73
2022/01/02 03:04:21;;;;;;;;;;;3.10;99.90;;;;;;5093100;28;19985;-73
2022/01/02 03:06:48;;;;;;;;;;;3.20;99.90;;;;;;5095760;28;19932;-73
2022/01/02 03:09:18;;;;;;;;;;;3.30;99.90;;;;;;5102812;28;22265;-74
2022/01/02 03:11:45;;;;;;;;;;;3.40;99.90;;;;;;5101265;28;19964;-74
2022/01/02 03:14:12;;;;;;;;;;;3.50;99.90;;;;;;5103732;28;20007;-74
2022/01/02 03:16:39;;;;;;;;;;;3.60;99.90;;;;;;5105119;28;20422;-74
2022/01/02 03:19:06;;;;;;;;;;;3.70;99.90;;;;;;5107219;28;19971;-74
2022/01/02 03:21:33;;;;;;;;;;;3.70;99.90;;;;;;5111962;27;20023;-73
2022/01/02 03:23:59;;;;;;;;;;;3.80;99.90;;;;;;5096757;28;20018;-74
2022/01/02 03:26:26;;;;;;;;;;;3.80;99.90;;;;;;5096741;28;19934;-74
2022/01/02 03:28:53;;;;;;;;;;;3.90;99.90;;;;;;5096736;28;19924;-74
2022/01/02 03:31:19;;;;;;;;;;;4.00;99.90;;;;;;5101597;28;19966;-74
2022/01/02 03:33:46;;;;;;;;;;;4.00;99.90;;;;;;5105982;28;19928;-74
2022/01/02 03:36:13;;;;;;;;;;;4.00;99.90;;;;;;5106379;28;20396;-73
2022/01/02 03:38:39;;;;;;;;;;;4.10;99.90;;;;;;5100695;27;20027;-74
2022/01/02 03:41:06;;;;;;;;;;;4.10;99.90;;;;;;5084604;28;20130;-74
2022/01/02 03:43:39;;;;;;;;;;;4.10;99.90;;;;;;5105712;28;19932;-74
2022/01/02 03:46:06;;;;;;;;;;;4.10;99.90;;;;;;5104644;28;19924;-75
2022/01/02 03:48:33;;;;;;;;;;;4.10;99.90;;;;;;5108421;28;19924;-74
2022/01/02 03:51:04;;;;;;;;;;;4.20;99.90;;;;;;5101243;28;19928;-74
2022/01/02 03:53:30;;;;;;;;;;;4.10;99.90;;;;;;5100234;28;19945;-74
2022/01/02 03:55:57;;;;;;;;;;;4.10;99.90;;;;;;5107837;28;19994;-75
2022/01/02 03:58:26;;;;;;;;;;;4.10;99.90;;;;;;5095493;28;20011;-75
2022/01/02 04:00:52;;;;;;;;;;;4.10;99.90;;;;;;5094209;28;20309;-74
2022/01/02 04:03:19;;;;;;;;;;;4.00;99.90;;;;;;5094044;28;19928;-74
2022/01/02 04:05:46;;;;;;;;;;;4.00;99.90;;;;;;5109233;28;19924;-75
2022/01/02 04:08:13;;;;;;;;;;;3.80;99.90;;;;;;5103958;27;19923;-75
2022/01/02 04:10:39;;;;;;;;;;;3.70;99.90;;;;;;5100221;28;19950;-74
2022/01/02 04:13:06;;;;;;;;;;;3.70;99.90;;;;;;5101456;28;19984;-75
2022/01/02 04:15:33;;;;;;;;;;;3.60;99.90;;;;;;5106584;28;20156;-74
2022/01/02 04:18:00;;;;;;;;;;;3.60;99.90;;;;;;5125109;27;20014;-74
2022/01/02 04:20:29;;;;;;;;;;;3.60;99.90;;;;;;5111554;27;20503;-74
2022/01/02 04:22:56;;;;;;;;;;;3.50;99.90;;;;;;5103192;28;20382;-74
2022/01/02 04:25:23;;;;;;;;;;;3.50;99.90;;;;;;5112353;28;19946;-74
2022/01/02 04:27:49;;;;;;;;;;;3.50;99.90;;;;;;5104053;28;19924;-74
2022/01/02 04:30:19;;;;;;;;;;;3.50;99.90;;;;;;5105944;28;19928;-74
2022/01/02 04:32:48;;;;;;;;;;;3.50;99.90;;;;;;5094615;28;20268;-75
2022/01/02 04:35:15;;;;;;;;;;;3.50;99.90;;;;;;5093830;28;19924;-74
2022/01/02 04:37:43;;;;;;;;;;;3.60;99.90;;;;;;5105604;28;19949;-74
2022/01/02 04:40:09;;;;;;;;;;;3.70;99.90;;;;;;5103574;28;19950;-74
2022/01/02 04:42:43;;;;;;;;;;;3.90;99.90;;;;;;5101058;28;19930;-74
2022/01/02 04:45:10;;;;;;;;;;;3.90;99.90;;;;;;5102590;28;20002;-74
2022/01/02 04:47:37;;;;;;;;;;;4.00;99.90;;;;;;5105631;28;19951;-75
2022/01/02 04:50:04;;;;;;;;;;;4.00;99.90;;;;;;5108602;27;20023;-75
2022/01/02 04:52:33;;;;;;;;;;;4.00;99.90;;;;;;5094002;28;20402;-75
2022/01/02 04:55:00;;;;;;;;;;;4.00;99.90;;;;;;5101332;27;19930;-75
2022/01/02 04:57:36;;;;;;;;;;;4.00;99.90;;;;;;5100915;28;19981;-75
2022/01/02 05:00:04;;;;;;;;;;;4.00;99.90;;;;;;5102057;28;20018;-75
2022/01/02 05:02:31;;;;;;;;;;;3.90;99.90;;;;;;5094936;28;19931;-75
2022/01/02 05:05:04;;;;;;;;;;;3.90;99.90;;;;;;5101239;28;20015;-75
2022/01/02 05:07:30;;;;;;;;;;;3.90;99.90;;;;;;5107448;28;19923;-75
2022/01/02 05:09:57;;;;;;;;;;;3.90;99.90;;;;;;5111058;28;19935;-75
2022/01/02 05:12:24;;;;;;;;;;;3.80;99.90;;;;;;5107056;27;19924;-73
2022/01/02 05:14:50;;;;;;;;;;;3.80;99.90;;;;;;5096098;28;19924;-74
2022/01/02 05:17:17;;;;;;;;;;;3.80;99.90;;;;;;5097930;28;20011;-75
2022/01/02 05:19:49;;;;;;;;;;;3.80;99.90;;;;;;5097907;28;19924;-75
2022/01/02 05:22:16;;;;;;;;;;;3.80;99.90;;;;;;5100239;28;20003;-74
2022/01/02 05:24:42;;;;;;;;;;;3.80;99.90;;;;;;5099732;28;19924;-75
2022/01/02 05:27:09;;;;;;;;;;;3.80;99.90;;;;;;5092475;28;19924;-75
2022/01/02 05:29:36;;;;;;;;;;;3.80;99.90;;;;;;5091237;28;20011;-74
2022/01/02 05:32:02;;;;;;;;;;;3.80;99.90;;;;;;5107235;28;20015;-74
2022/01/02 05:34:29;;;;;;;;;;;3.90;99.90;;;;;;5089818;28;20550;-75
2022/01/02 05:36:55;;;;;;;;;;;3.90;99.90;;;;;;5096059;28;19928;-74
2022/01/02 05:39:23;;;;;;;;;;;3.90;99.90;;;;;;5090992;28;19931;-74
2022/01/02 05:41:50;;;;;;;;;;;3.90;99.90;;;;;;5112593;27;19923;-75
2022/01/02 05:44:17;;;;;;;;;;;3.90;99.90;;;;;;5097875;27;20632;-75
2022/01/02 05:46:44;;;;;;;;;;;3.90;99.90;;;;;;5093342;28;19931;-75
2022/01/02 05:49:11;;;;;;;;;;;4.00;99.90;;;;;;5093148;28;19924;-75
2022/01/02 05:51:38;;;;;;;;;;;4.00;99.90;;;;;;5092689;28;20395;-75
2022/01/02 05:54:05;;;;;;;;;;;4.10;99.90;;;;;;5104367;28;20574;-76
2022/01/02 05:56:32;;;;;;;;;;;4.10;99.90;;;;;;5098002;28;19928;-73
2022/01/02 05:59:01;;;;;;;;;;;4.20;99.90;;;;;;5106583;27;19928;-75
2022/01/02 06:01:28;;;;;;;;;;;4.20;99.90;;;;;;5101577;28;19928;-76
2022/01/02 06:03:55;;;;;;;;;;;4.20;99.90;;;;;;5092461;28;19924;-76
2022/01/02 06:06:21;;;;;;;;;;;4.10;99.90;;;;;;5100913;28;20301;-73
2022/01/02 06:08:48;;;;;;;;;;;4.10;99.90;;;;;;5098598;27;19988;-73
2022/01/02 06:11:17;;;;;;;;;;;4.10;99.90;;;;;;5107908;27;19928;-72
2022/01/02 06:13:45;;;;;;;;;;;4.00;99.90;;;;;;5090567;28;19924;-73
2022/01/02 06:16:12;;;;;;;;;;;4.00;99.90;;;;;;5110174;27;20022;-72
2022/01/02 06:18:39;;;;;;;;;;;3.90;99.90;;;;;;5106030;27;20298;-74
2022/01/02 06:21:07;;;;;;;;;;;3.90;99.90;;;;;;5101380;28;20334;-74
2022/01/02 06:23:34;;;;;;;;;;;3.90;99.90;;;;;;5109734;27;19983;-74
2022/01/02 06:26:01;;;;;;;;;;;3.90;99.90;;;;;;5101725;28;20023;-74
2022/01/02 06:28:27;;;;;;;;;;;3.80;99.90;;;;;;5103632;28;20014;-74
2022/01/02 06:30:54;;;;;;;;;;;3.70;99.90;;;;;;5102194;28;19982;-73
2022/01/02 06:33:24;;;;;;;;;;;3.70;99.90;;;;;;5101271;28;19928;-73
2022/01/02 06:35:51;;;;;;;;;;;3.70;99.90;;;;;;5091813;28;19969;-74
2022/01/02 06:38:19;;;;;;;;;;;3.70;99.90;;;;;;5091597;28;19940;-73
2022/01/02 06:40:47;;;;;;;;;;;3.60;99.90;;;;;;5098982;28;19924;-74
2022/01/02 06:43:15;;;;;;;;;;;3.50;99.90;;;;;;5094601;28;19931;-73
2022/01/02 06:45:46;;;;;;;;;;;3.50;99.90;;;;;;5093366;28;19924;-73
2022/01/02 06:48:16;;;;;;;;;;;3.60;99.90;;;;;;5106360;28;20030;-73
2022/01/02 06:50:43;;;;;;;;;;;3.60;99.90;;;;;;5098250;28;19930;-73
2022/01/02 06:53:10;;;;;;;;;;;3.60;99.90;;;;;;5104135;28;20477;-73
2022/01/02 06:55:40;;;;;;;;;;;3.60;99.90;;;;;;5102146;28;20393;-73
2022/01/02 06:58:06;;;;;;;;;;;3.70;99.90;;;;;;5102364;28;19924;-73
2022/01/02 07:00:33;;;;;;;;;;;3.70;99.90;;;;;;5098482;28;19959;-73
2022/01/02 07:03:00;;;;;;;;;;;3.80;99.90;;;;;;5094665;28;19931;-74
2022/01/02 07:05:27;;;;;;;;;;;3.90;99.90;;;;;;5100640;27;19935;-75
2022/01/02 07:07:54;;;;;;;;;;;3.90;99.90;;;;;;5091973;28;19924;-75
2022/01/02 07:10:20;;;;;;;;;;;4.00;99.90;;;;;;5098688;28;19962;-75
2022/01/02 07:12:47;;;;;;;;;;;4.10;99.90;;;;;;5090261;28;19928;-76
2022/01/02 07:15:14;;;;;;;;;;;4.10;99.90;;;;;;5097313;28;19955;-76
2022/01/02 07:17:41;;;;;;;;;;;4.10;99.90;;;;;;5099825;28;19923;-76
2022/01/02 07:20:11;;;;;;;;;;;4.10;99.90;;;;;;5100387;28;19928;-76
2022/01/02 07:22:40;;;;;;;;;;;4.10;99.90;;;;;;5090916;28;20011;-76
2022/01/02 07:25:10;;;;;;;;;;;4.20;99.90;;;;;;5100391;28;20022;-76
2022/01/02 07:27:37;;;;;;;;;;;4.20;99.90;;;;;;5076428;28;20305;-76
2022/01/02 07:30:05;;;;;;;;;;;4.20;99.90;;;;;;5103421;28;19924;-76
2022/01/02 07:32:32;;;;;;;;;;;4.30;99.90;;;;;;5096144;28;20371;-76
2022/01/02 07:34:59;;;;;;;;;;;4.30;99.90;;;;;;5091291;28;19923;-76
2022/01/02 07:37:37;;;;;;;;;;;4.30;99.90;;;;;;5093449;28;20378;-76
2022/01/02 07:40:04;;;;;;;;;;;4.40;99.90;;;;;;5106417;28;19967;-76
2022/01/02 07:42:30;;;;;;;;;;;4.40;99.90;;;;;;5089550;28;19924;-76
2022/01/02 07:44:58;;;;;;;;;;;4.40;99.90;;;;;;5087823;28;19934;-76
2022/01/02 07:47:25;;;;;;;;;;;4.50;99.90;;;;;;5094828;28;19934;-77
2022/01/02 07:49:51;;;;;;;;;;;4.50;99.90;;;;;;5100208;28;19924;-76
2022/01/02 07:52:18;;;;;;;;;;;4.50;99.90;;;;;;5093380;28;19924;-76
2022/01/02 07:54:46;;;;;;;;;;;4.60;99.90;;;;;;5101172;28;19930;-76
2022/01/02 07:57:13;;;;;;;;;;;4.60;99.90;;;;;;5102045;28;19924;-77
2022/01/02 07:59:39;;;;;;;;;;;4.60;99.90;;;;;;5093966;28;20011;-76
2022/01/02 08:02:27;;;;;;;;;;;4.60;99.90;;;;;;5098777;28;19951;-76
2022/01/02 08:04:54;;;;;;;;;;;4.70;99.90;;;;;;5090775;28;20821;-77
2022/01/02 08:07:23;;;;;;;;;;;4.70;99.90;;;;;;5106215;28;19930;-76
2022/01/02 08:09:50;;;;;;;;;;;4.80;99.90;;;;;;5101496;28;20404;-76
2022/01/02 08:12:19;;;;;;;;;;;4.80;99.90;;;;;;5101831;28;19924;-76
2022/01/02 08:14:46;;;;;;;;;;;4.80;99.90;;;;;;5103079;28;19930;-76
2022/01/02 08:17:13;;;;;;;;;;;4.90;99.90;;;;;;5101602;28;19923;-76
2022/01/02 08:19:39;;;;;;;;;;;4.90;99.90;;;;;;5101829;27;20264;-77
2022/01/02 08:22:06;;;;;;;;;;;4.90;99.90;;;;;;5094365;28;19931;-76
2022/01/02 08:24:33;;;;;;;;;;;4.90;99.90;;;;;;5099231;28;19981;-76
2022/01/02 08:26:59;;;;;;;;;;;5.00;99.90;;;;;;5102528;27;19954;-76
2022/01/02 08:29:26;;;;;;;;;;;5.00;99.90;;;;;;5103920;28;19924;-76
2022/01/02 08:31:53;;;;;;;;;;;5.00;99.90;;;;;;5097409;28;19928;-76
2022/01/02 08:34:20;;;;;;;;;;;5.10;99.90;;;;;;5098427;27;19924;-76
2022/01/02 08:36:47;;;;;;;;;;;5.10;99.90;;;;;;5102110;27;19967;-76
2022/01/02 08:39:13;;;;;;;;;;;5.20;99.90;;;;;;5101614;28;19930;-76
2022/01/02 08:41:40;;;;;;;;;;;5.20;99.90;;;;;;5091980;28;20367;-76
2022/01/02 08:44:07;;;;;;;;;;;5.20;99.90;;;;;;5093841;28;19947;-76
2022/01/02 08:46:33;;;;;;;;;;;5.20;99.90;;;;;;5097883;28;19928;-76
2022/01/02 08:49:00;;;;;;;;;;;5.20;99.90;;;;;;5103590;28;20011;-76
2022/01/02 08:51:32;;;;;;;;;;;5.20;99.90;;;;;;5103897;27;19977;-77
2022/01/02 08:53:59;;;;;;;;;;;5.30;99.90;;;;;;5101937;28;20755;-77
2022/01/02 08:56:29;;;;;;;;;;;5.30;99.90;;;;;;5105197;28;19924;-77
2022/01/02 08:58:56;;;;;;;;;;;5.30;99.90;;;;;;5106537;28;20022;-77
2022/01/02 09:01:23;;;;;;;;;;;5.40;99.90;;;;;;5095915;28;20016;-76
2022/01/02 09:03:50;;;;;;;;;;;5.40;99.90;;;;;;5103638;28;20019;-77
2022/01/02 09:06:17;;;;;;;;;;;5.50;99.90;;;;;;5099355;28;19924;-77
2022/01/02 09:08:43;;;;;;;;;;;5.50;99.90;;;;;;5105878;28;20006;-77
2022/01/02 09:11:10;;;;;;;;;;;5.70;99.90;;;;;;5094815;28;19930;-77
2022/01/02 09:13:37;;;;;;;;;;;5.80;99.90;;;;;;5093639;28;19924;-77
2022/01/02 09:16:03;;;;;;;;;;;5.90;99.90;;;;;;5092686;28;19924;-76
2022/01/02 09:18:30;;;;;;;;;;;6.00;99.90;;;;;;5095358;27;19940;-75
2022/01/02 09:20:57;;;;;;;;;;;6.00;99.90;;;;;;5102604;27;20274;-75
2022/01/02 09:23:23;;;;;;;;;;;6.10;99.90;;;;;;5101440;28;19934;-75
2022/01/02 09:25:50;;;;;;;;;;;6.20;99.90;;;;;;5107806;27;19924;-76
2022/01/02 09:28:17;;;;;;;;;;;6.20;99.90;;;;;;5098845;28;20010;-75
2022/01/02 09:30:44;;;;;;;;;;;6.20;99.90;;;;;;5095988;27;19924;-78
2022/01/02 09:33:10;;;;;;;;;;;6.20;99.90;;;;;;5108078;28;20389;-76
2022/01/02 09:35:41;;;;;;;;;;;6.20;99.90;;;;;;5095185;28;19928;-78
2022/01/02 09:38:08;;;;;;;;;;;6.10;99.90;;;;;;5104320;28;20010;-77
2022/01/02 09:40:35;;;;;;;;;;;6.10;99.90;;;;;;5099130;28;19931;-77
2022/01/02 09:43:02;;;;;;;;;;;6.10;99.90;;;;;;5094875;28;19928;-77
2022/01/02 09:45:31;;;;;;;;;;;6.20;99.90;;;;;;5098810;28;19928;-78
2022/01/02 09:47:59;;;;;;;;;;;6.30;99.90;;;;;;5100926;28;19928;-76
2022/01/02 09:50:26;;;;;;;;;;;6.40;99.90;;;;;;5097937;28;19977;-76
2022/01/02 09:52:56;;;;;;;;;;;6.50;99.90;;;;;;5102658;28;19931;-77
2022/01/02 09:55:25;;;;;;;;;;;6.50;99.90;;;;;;5065647;27;19976;-77
2022/01/02 09:57:58;;;;;;;;;;;6.60;99.90;;;;;;5052528;28;19932;-76
2022/01/02 10:00:24;;;;;;;;;;;6.60;99.90;;;;;;5056386;28;19935;-76
2022/01/02 10:03:00;;;;;;;;;;;6.70;99.90;;;;;;5058102;28;19925;-77
2022/01/02 10:05:49;;;;;;;;;;;6.70;99.90;;;;;;5059686;28;19924;-79
2022/01/02 10:08:20;;;;;;;;;;;6.70;99.90;;;;;;5066186;28;19925;-78
2022/01/02 10:10:47;;;;;;;;;;;6.90;99.90;;;;;;5061901;28;19924;-78
2022/01/02 10:13:14;;;;;;;;;;;7.00;99.90;;;;;;5062002;28;19928;-78
2022/01/02 10:15:42;;;;;;;;;;;6.90;99.90;;;;;;5054968;28;19931;-79
2022/01/02 10:18:09;;;;;;;;;;;6.90;99.90;;;;;;5053248;28;20015;-79
2022/01/02 10:20:37;;;;;;;;;;;6.90;99.90;;;;;;5060389;28;19925;-79
2022/01/02 10:23:09;;;;;;;;;;;6.90;99.90;;;;;;5056248;28;19983;-79
2022/01/02 10:25:52;;;;;;;;;;;6.80;99.90;;;;;;5064988;28;19931;-79
2022/01/02 10:28:22;;;;;;;;;;;6.70;99.90;;;;;;5059048;28;19933;-79
2022/01/02 10:30:50;;;;;;;;;;;6.70;99.90;;;;;;5061079;28;19987;-76
2022/01/02 10:33:17;;;;;;;;;;;6.60;99.90;;;;;;5051967;28;19925;-76
2022/01/02 10:35:44;;;;;;;;;;;6.50;99.90;;;;;;5060486;28;19928;-77
2022/01/02 10:38:15;;;;;;;;;;;6.60;99.90;;;;;;5058802;28;19975;-76
2022/01/02 10:40:44;;;;;;;;;;;6.50;99.90;;;;;;5058618;28;20023;-77
2022/01/02 10:43:29;;;;;;;;;;;6.50;99.90;;;;;;5062774;28;19931;-78
2022/01/02 10:45:57;;;;;;;;;;;6.60;99.90;;;;;;5055020;28;20371;-78
2022/01/02 10:48:34;;;;;;;;;;;6.70;99.90;;;;;;5060977;28;20328;-77
2022/01/02 10:51:05;;;;;;;;;;;6.80;99.90;;;;;;5056708;28;19925;-78
2022/01/02 10:53:34;;;;;;;;;;;6.80;99.90;;;;;;5058113;28;20573;-79
2022/01/02 10:56:01;;;;;;;;;;;6.80;99.90;;;;;;5075833;28;19933;-78
2022/01/02 10:58:28;;;;;;;;;;;7.00;99.90;;;;;;5058408;28;19931;-79
2022/01/02 11:01:01;;;;;;;;;;;7.00;99.90;;;;;;5061999;28;19928;-79
2022/01/02 11:03:29;;;;;;;;;;;7.00;99.90;;;;;;5061673;28;20295;-79
2022/01/02 11:06:04;;;;;;;;;;;7.00;99.90;;;;;;5052732;28;20362;-79
2022/01/02 11:08:32;;;;;;;;;;;7.00;99.90;;;;;;5059211;28;19932;-79
2022/01/02 11:10:59;;;;;;;;;;;7.00;99.90;;;;;;5057600;28;20405;-79
2022/01/02 11:13:36;;;;;;;;;;;7.10;99.90;;;;;;5053364;28;19935;-79
2022/01/02 11:16:06;;;;;;;;;;;7.20;99.90;;;;;;5056245;28;19960;-79
2022/01/02 11:18:34;;;;;;;;;;;7.10;99.90;;;;;;5051578;28;20603;-78
2022/01/02 11:21:01;;;;;;;;;;;7.20;99.90;;;;;;5062799;28;19931;-79
2022/01/02 11:23:36;;;;;;;;;;;7.20;99.90;;;;;;5053570;28;19925;-79
2022/01/02 11:26:38;;;;;;;;;;;7.30;99.90;;;;;;5058562;28;19925;-78
2022/01/02 11:29:12;;;;;;;;;;;7.30;99.90;;;;;;5046714;28;20461;-78
2022/01/02 11:31:43;;;;;;;;;;;7.50;99.90;;;;;;5024442;28;19948;-78
2022/01/02 11:34:31;;;;;;;;;;;7.50;99.90;;;;;;5033870;28;19932;-79
2022/01/02 11:37:16;;;;;;;;;;;7.60;99.90;;;;;;5043170;28;19929;-78
2022/01/02 11:39:55;;;;;;;;;;;7.50;99.90;;;;;;5035116;28;19924;-77
2022/01/02 11:42:34;;;;;;;;;;;7.40;99.90;;;;;;5032334;28;19929;-78
2022/01/02 11:45:07;;;;;;;;;;;7.40;99.90;;;;;;5029670;28;19933;-78
2022/01/02 11:47:40;;;;;;;;;;;7.50;99.90;;;;;;5049402;28;19925;-78
2022/01/02 11:50:28;;;;;;;;;;;7.50;99.90;;;;;;5052626;28;19975;-78
2022/01/02 11:53:10;;;;;;;;;;;7.60;99.90;;;;;;5035330;28;19987;-78
2022/01/02 11:55:38;;;;;;;;;;;7.70;99.90;;;;;;5050444;28;20016;-78
2022/01/02 11:58:04;;;;;;;;;;;7.70;99.90;;;;;;5048759;28;19933;-78
2022/01/02 12:00:41;;;;;;;;;;;7.80;99.90;;;;;;5037787;28;20520;-78
2022/01/02 12:03:28;;;;;;;;;;;7.90;99.90;;;;;;5058640;28;20005;-78
2022/01/02 12:06:13;;;;;;;;;;;8.00;99.90;;;;;;5060501;28;19950;-77
2022/01/02 12:09:03;;;;;;;;;;;8.10;99.90;;;;;;5056803;28;20314;-77
2022/01/02 12:11:40;;;;;;;;;;;8.00;99.90;;;;;;5063892;28;20594;-77
2022/01/02 12:14:16;;;;;;;;;;;8.40;99.90;;;;;;5062110;28;20544;-77
2022/01/02 12:16:49;;;;;;;;;;;9.10;99.90;;;;;;5055932;28;20387;-77
2022/01/02 12:19:16;;;;;;;;;;;9.80;99.90;;;;;;5060003;28;20243;-76
2022/01/02 12:22:02;;;;;;;;;;;10.30;99.90;;;;;;5065240;28;20412;-77
2022/01/02 12:24:29;;;;;;;;;;;10.00;99.90;;;;;;5064122;28;20012;-77
2022/01/02 12:27:06;;;;;;;;;;;9.60;99.90;;;;;;5080149;28;19924;-76
2022/01/02 12:29:33;;;;;;;;;;;9.60;99.90;;;;;;5063330;28;19979;-77
2022/01/02 12:32:00;;;;;;;;;;;10.10;99.90;;;;;;5059422;28;19929;-76
2022/01/02 12:34:27;;;;;;;;;;;10.40;99.90;;;;;;5057008;28;19971;-77
2022/01/02 12:36:55;;;;;;;;;;;10.60;99.90;;;;;;5059555;28;20282;-75
2022/01/02 12:39:31;;;;;;;;;;;11.00;99.90;;;;;;5062006;28;20557;-75
2022/01/02 12:42:02;;;;;;;;;;;11.20;99.90;;;;;;5037435;28;19932;-74
2022/01/02 12:44:30;;;;;;;;;;;11.20;99.90;;;;;;5062081;28;19924;-74
2022/01/02 12:46:59;;;;;;;;;;;11.10;99.90;;;;;;5054663;28;19935;-76
2022/01/02 12:49:28;;;;;;;;;;;11.00;99.90;;;;;;5082663;28;19931;-76
2022/01/02 12:51:59;;;;;;;;;;;11.00;99.90;;;;;;5067582;28;20762;-76
2022/01/02 12:54:32;;;;;;;;;;;11.10;99.90;;;;;;5054157;28;19935;-76
2022/01/02 12:57:00;;;;;;;;;;;11.20;99.90;;;;;;5058409;28;19929;-76
2022/01/02 12:59:28;;;;;;;;;;;11.40;99.90;;;;;;5056586;28;20007;-76
2022/01/02 13:02:00;;;;;;;;;;;11.30;99.90;;;;;;5063588;28;20039;-75
2022/01/02 13:04:29;;;;;;;;;;;11.50;99.90;;;;;;5050645;28;19928;-76
2022/01/02 13:07:00;;;;;;;;;;;11.60;99.90;;;;;;5063107;28;19929;-76
2022/01/02 13:09:32;;;;;;;;;;;11.70;99.90;;;;;;5063153;28;19931;-75
2022/01/02 13:12:01;;;;;;;;;;;11.90;99.90;;;;;;5059277;28;19924;-75
2022/01/02 13:14:30;;;;;;;;;;;12.00;99.90;;;;;;5052252;28;19925;-75
2022/01/02 13:17:01;;;;;;;;;;;12.20;99.90;;;;;;5056279;28;20023;-75
2022/01/02 13:19:29;;;;;;;;;;;12.10;99.90;;;;;;5058862;28;20707;-75
2022/01/02 13:21:57;;;;;;;;;;;12.00;99.90;;;;;;5058871;28;19924;-75
2022/01/02 13:24:28;;;;;;;;;;;11.60;99.90;;;;;;5066177;28;19928;-75
2022/01/02 13:26:58;;;;;;;;;;;11.30;99.90;;;;;;5060686;28;19981;-75
2022/01/02 13:29:26;;;;;;;;;;;10.80;99.90;;;;;;5058179;28;19943;-74
2022/01/02 13:31:54;;;;;;;;;;;10.50;99.90;;;;;;5057498;28;19925;-74
2022/01/02 13:34:22;;;;;;;;;;;10.20;99.90;;;;;;5055892;28;20015;-74
2022/01/02 13:36:56;;;;;;;;;;;10.10;99.90;;;;;;5064094;28;19929;-74
2022/01/02 13:39:37;;;;;;;;;;;10.00;99.90;;;;;;5071927;28;20561;-76
2022/01/02 13:42:04;;;;;;;;;;;10.10;99.90;;;;;;5053374;28;20344;-77
2022/01/02 13:44:44;;;;;;;;;;;10.20;99.90;;;;;;5056917;28;19929;-76
2022/01/02 13:47:11;;;;;;;;;;;10.20;99.90;;;;;;5057052;28;19936;-77
2022/01/02 13:49:38;;;;;;;;;;;10.40;99.90;;;;;;5053450;28;19932;-75
2022/01/02 13:52:05;;;;;;;;;;;10.50;99.90;;;;;;5053928;28;19931;-75
2022/01/02 13:54:31;;;;;;;;;;;10.50;99.90;;;;;;5053869;28;19925;-74
2022/01/02 13:56:59;;;;;;;;;;;10.50;99.90;;;;;;5062208;28;19928;-74
2022/01/02 13:59:26;;;;;;;;;;;10.40;99.90;;;;;;5057500;28;20953;-74
2022/01/02 14:01:53;;;;;;;;;;;10.40;99.90;;;;;;5053988;28;19976;-74
2022/01/02 14:04:20;;;;;;;;;;;10.40;99.90;;;;;;5066410;28;20691;-75
2022/01/02 14:06:50;;;;;;;;;;;10.50;99.90;;;;;;5046602;28;19931;-75
2022/01/02 14:09:17;;;;;;;;;;;10.60;99.90;;;;;;5049813;28;19928;-75
2022/01/02 14:11:47;;;;;;;;;;;10.80;99.90;;;;;;5062849;28;20026;-74
2022/01/02 14:14:19;;;;;;;;;;;10.90;99.90;;;;;;5053651;28;20299;-75
2022/01/02 14:17:30;;;;;;;;;;;11.00;99.90;;;;;;5054458;28;19924;-75
2022/01/02 14:19:44;;;;;;;;;;;11.00;99.90;;;;;;5052403;28;20031;-74
2022/01/02 14:22:16;;;;;;;;;;;11.00;99.90;;;;;;5060560;28;19973;-74
2022/01/02 14:24:43;;;;;;;;;;;11.00;99.90;;;;;;5050316;28;19968;-74
2022/01/02 14:27:13;;;;;;;;;;;11.00;99.90;;;;;;5052777;28;20290;-75
2022/01/02 14:29:39;;;;;;;;;;;11.00;99.90;;;;;;5048607;28;19996;-75
2022/01/02 14:32:06;;;;;;;;;;;11.00;99.90;;;;;;5049812;28;20390;-75
2022/01/02 14:34:34;;;;;;;;;;;10.90;99.90;;;;;;5051905;28;20771;-74
2022/01/02 14:37:02;;;;;;;;;;;10.90;99.90;;;;;;5058960;28;19928;-75
2022/01/02 14:39:28;;;;;;;;;;;10.80;99.90;;;;;;5054577;28;19971;-75
2022/01/02 14:41:55;;;;;;;;;;;10.70;99.90;;;;;;5060214;28;19933;-74
2022/01/02 14:44:25;;;;;;;;;;;10.50;99.90;;;;;;5058527;28;20653;-74
2022/01/02 14:46:53;;;;;;;;;;;10.40;99.90;;;;;;5052859;28;19935;-75
2022/01/02 14:49:20;;;;;;;;;;;10.30;99.90;;;;;;5053192;28;19951;-75